Detroit, Michigan
Traffic Map
Current Weather Conditions
Detroit, Michigan
Clear
Clear
19°
Feels Like: 11°
Wind Chill: 11° Ceiling: Unl
Heat Index: 19° Visibility: 15mi
Dew Point: 18° Wind: 6mph
Humidity: 93% Direction: 230° (SW)
Pressure: 30.28in Gusts: 0mph
Raw Report DataCYQG 200600Z 23005KT 15SM SKC M07/M08 A3028 RMK FROIN SLP264
Traffic Incident Summary
Active as of:
Severity:
Category:
InformationThere was an issue retrieving the traffic information for this location. Please try a different location or try again shortly.
Advertisements
Track Severe Weather on mobile